createdAt,value
2018-04-10T00:01:59.496Z,53.11
2018-04-10T00:04:32.047Z,52.41
2018-04-10T00:07:04.668Z,52.44
2018-04-10T00:09:37.317Z,52.74
2018-04-10T00:12:09.916Z,52.66
2018-04-10T00:14:42.418Z,52.21
2018-04-10T00:17:14.954Z,52.21
2018-04-10T00:19:47.467Z,52.57
2018-04-10T00:22:19.990Z,52.06
2018-04-10T00:24:52.542Z,52.46
2018-04-10T00:27:25.118Z,52.26
2018-04-10T00:29:57.609Z,53.01
2018-04-10T00:32:30.215Z,52.88
2018-04-10T00:35:02.714Z,52.76
2018-04-10T00:37:35.272Z,53.30
2018-04-10T00:40:07.858Z,53.71
2018-04-10T00:42:40.440Z,53.90
2018-04-10T00:45:13.031Z,53.46
2018-04-10T00:47:45.539Z,53.02
2018-04-10T00:50:18.039Z,53.58
2018-04-10T00:52:50.526Z,52.67
2018-04-10T00:55:23.047Z,53.21
2018-04-10T00:57:55.654Z,53.16
2018-04-10T01:00:28.178Z,52.59
2018-04-10T01:03:00.669Z,52.99
2018-04-10T01:05:33.182Z,53.58
2018-04-10T01:08:05.673Z,53.36
2018-04-10T01:10:38.270Z,53.21
2018-04-10T01:13:10.765Z,53.11
2018-04-10T01:15:43.342Z,52.97
2018-04-10T01:18:15.837Z,53.01
2018-04-10T01:20:48.417Z,52.56
2018-04-10T01:23:20.997Z,52.60
2018-04-10T01:25:53.574Z,52.92
2018-04-10T01:28:26.070Z,52.59
2018-04-10T01:30:58.610Z,52.57
2018-04-10T01:33:31.125Z,52.71
2018-04-10T01:36:03.631Z,52.26
2018-04-10T01:38:36.132Z,52.25
2018-04-10T01:41:08.652Z,52.25
2018-04-10T01:43:41.145Z,52.06
2018-04-10T01:46:13.660Z,51.94
2018-04-10T01:48:46.145Z,51.85
2018-04-10T01:51:18.727Z,51.68
2018-04-10T01:53:51.218Z,51.69
2018-04-10T01:56:23.739Z,51.66
2018-04-10T01:58:56.225Z,51.69
2018-04-10T02:01:28.766Z,51.76
2018-04-10T02:04:01.356Z,51.75
2018-04-10T02:06:33.877Z,51.57
2018-04-10T02:09:06.377Z,51.71
2018-04-10T02:11:39.005Z,51.52
2018-04-10T02:14:11.494Z,51.28
2018-04-10T02:16:44.006Z,51.03
2018-04-10T02:19:16.497Z,50.85
2018-04-10T02:21:49.016Z,51.03
2018-04-10T02:24:21.502Z,50.93
2018-04-10T02:26:54.006Z,50.89
2018-04-10T02:29:26.501Z,50.98
2018-04-10T02:31:59.020Z,51.08
2018-04-10T02:34:31.566Z,51.27
2018-04-10T02:37:04.082Z,51.37
2018-04-10T02:39:36.576Z,51.55
2018-04-10T02:42:09.106Z,51.67
2018-04-10T02:44:41.698Z,51.65
2018-04-10T02:47:14.215Z,51.59
2018-04-10T02:49:46.706Z,51.55
2018-04-10T02:52:19.237Z,51.38
2018-04-10T02:54:51.734Z,51.18
2018-04-10T02:57:24.259Z,51.61
2018-04-10T02:59:56.752Z,51.77
2018-04-10T03:02:29.283Z,51.87
2018-04-10T03:05:01.781Z,51.76
2018-04-10T03:07:34.296Z,51.74
2018-04-10T03:10:06.793Z,51.70
2018-04-10T03:12:39.310Z,51.70
2018-04-10T03:15:11.796Z,51.64
2018-04-10T03:17:44.377Z,51.78
2018-04-10T03:20:16.963Z,51.97
2018-04-10T03:22:49.550Z,51.57
2018-04-10T03:25:22.126Z,51.86
2018-04-10T03:27:54.641Z,51.57
2018-04-10T03:30:27.139Z,51.61
2018-04-10T03:32:59.683Z,51.46
2018-04-10T03:35:32.277Z,51.84
2018-04-10T03:38:04.795Z,51.87
2018-04-10T03:40:37.292Z,51.68
2018-04-10T03:43:09.832Z,52.07
2018-04-10T03:45:42.370Z,52.10
2018-04-10T03:48:14.996Z,52.03
2018-04-10T03:50:47.482Z,52.03
2018-04-10T03:53:20.062Z,51.85
2018-04-10T03:55:52.646Z,51.92
2018-04-10T03:58:25.154Z,51.83
2018-04-10T04:00:57.651Z,51.80
2018-04-10T04:03:30.201Z,52.06
2018-04-10T04:06:02.781Z,51.81
2018-04-10T04:08:35.367Z,52.08
2018-04-10T04:11:07.864Z,52.22
2018-04-10T04:13:40.385Z,51.93
2018-04-10T04:16:24.623Z,52.15
2018-04-10T04:19:09.057Z,51.93
2018-04-10T04:21:53.581Z,51.73
2018-04-10T04:24:26.092Z,51.68
2018-04-10T04:26:58.578Z,51.90
2018-04-10T04:29:31.081Z,52.29
2018-04-10T04:32:03.575Z,51.90
2018-04-10T04:34:36.156Z,52.14
2018-04-10T04:37:08.654Z,51.98
2018-04-10T04:39:41.213Z,52.25
2018-04-10T04:42:13.704Z,52.75
2018-04-10T04:44:46.214Z,52.38
2018-04-10T04:47:18.705Z,52.10
2018-04-10T04:49:51.211Z,52.57
2018-04-10T04:52:23.703Z,52.21
2018-04-10T04:54:56.234Z,52.19
2018-04-10T04:57:28.802Z,52.42
2018-04-10T05:00:01.318Z,52.81
2018-04-10T05:02:33.806Z,53.17
2018-04-10T05:05:06.327Z,53.18
2018-04-10T05:07:38.814Z,53.28
2018-04-10T05:10:11.331Z,53.65
2018-04-10T05:12:43.827Z,53.73
2018-04-10T05:15:16.343Z,53.54
2018-04-10T05:17:48.834Z,53.13
2018-04-10T05:20:21.356Z,52.77
2018-04-10T05:22:53.856Z,52.26
2018-04-10T05:25:26.378Z,52.42
2018-04-10T05:27:58.876Z,52.43
2018-04-10T05:30:32.251Z,52.46
2018-04-10T05:33:04.832Z,52.41
2018-04-10T05:35:37.352Z,52.04
2018-04-10T05:38:09.870Z,52.09
2018-04-10T05:40:42.427Z,51.12
2018-04-10T05:43:15.054Z,50.32
2018-04-10T05:45:47.566Z,49.25
2018-04-10T05:48:20.079Z,47.78
2018-04-10T05:50:52.607Z,46.84
2018-04-10T05:53:25.120Z,44.67
2018-04-10T05:55:57.624Z,43.10
2018-04-10T05:58:30.138Z,42.53
2018-04-10T06:01:02.635Z,39.55
2018-04-10T06:03:35.148Z,38.90
2018-04-10T06:06:07.728Z,38.79
2018-04-10T06:08:40.315Z,38.98
2018-04-10T06:11:12.901Z,40.02
2018-04-10T06:13:49.364Z,40.53
2018-04-10T06:16:21.870Z,40.83
2018-04-10T06:18:54.387Z,41.81
2018-04-10T06:21:26.947Z,42.15
2018-04-10T06:23:59.471Z,43.23
2018-04-10T06:26:31.971Z,42.20
2018-04-10T06:29:04.586Z,42.06
2018-04-10T06:31:37.076Z,41.53
2018-04-10T06:34:09.678Z,40.99
2018-04-10T06:36:42.174Z,41.21
2018-04-10T06:39:14.731Z,41.38
2018-04-10T06:41:47.318Z,41.83
2018-04-10T06:44:19.901Z,42.23
2018-04-10T06:46:52.399Z,41.72
2018-04-10T06:49:24.923Z,41.72
2018-04-10T06:51:57.419Z,42.06
2018-04-10T06:54:30.037Z,41.25
2018-04-10T06:57:02.539Z,40.07
2018-04-10T06:59:35.052Z,39.60
2018-04-10T07:02:07.544Z,38.44
2018-04-10T07:04:40.066Z,38.24
2018-04-10T07:07:12.634Z,40.41
2018-04-10T07:09:45.255Z,40.92
2018-04-10T07:12:17.752Z,41.66
2018-04-10T07:14:50.262Z,40.85
2018-04-10T07:17:22.759Z,40.63
2018-04-10T07:19:55.298Z,41.06
2018-04-10T07:22:27.878Z,40.70
2018-04-10T07:25:00.394Z,40.93
2018-04-10T07:27:32.902Z,41.23
2018-04-10T07:30:05.431Z,41.94
2018-04-10T07:32:37.927Z,40.13
2018-04-10T07:35:10.499Z,40.91
2018-04-10T07:37:42.994Z,40.41
2018-04-10T07:40:15.574Z,40.37
2018-04-10T07:42:48.072Z,39.84
2018-04-10T07:45:20.584Z,40.29
2018-04-10T07:47:53.070Z,39.65
2018-04-10T07:50:25.616Z,39.51
2018-04-10T07:52:58.191Z,38.93
2018-04-10T07:55:30.709Z,38.66
2018-04-10T07:58:03.203Z,38.55
2018-04-10T08:00:35.724Z,38.63
2018-04-10T08:03:08.232Z,39.27
2018-04-10T08:05:40.756Z,38.43
2018-04-10T08:08:13.248Z,37.44
2018-04-10T08:10:45.763Z,38.21
2018-04-10T08:13:18.255Z,37.09
2018-04-10T08:15:50.763Z,37.38
2018-04-10T08:18:23.261Z,37.09
2018-04-10T08:20:55.778Z,37.10
2018-04-10T08:23:28.271Z,36.54
2018-04-10T08:26:00.778Z,36.64
2018-04-10T08:28:33.270Z,36.14
2018-04-10T08:31:05.785Z,35.60
2018-04-10T08:33:38.274Z,35.68
2018-04-10T08:36:10.822Z,35.83
2018-04-10T08:38:43.403Z,35.63
2018-04-10T08:41:15.911Z,35.77
2018-04-10T08:43:48.402Z,34.29
2018-04-10T08:46:20.974Z,34.93
2018-04-10T08:48:53.545Z,33.23
2018-04-10T08:51:26.058Z,33.70
2018-04-10T08:53:58.556Z,33.20
2018-04-10T08:56:31.983Z,33.75
2018-04-10T08:59:04.491Z,34.54
2018-04-10T09:01:37.090Z,34.83
2018-04-10T09:04:09.623Z,34.40
2018-04-10T09:06:42.140Z,34.85
2018-04-10T09:09:14.661Z,34.47
2018-04-10T09:11:47.155Z,34.37
2018-04-10T09:14:19.680Z,34.86
2018-04-10T09:16:52.175Z,34.15
2018-04-10T09:19:24.686Z,34.23
2018-04-10T09:21:57.185Z,35.04
2018-04-10T09:24:29.702Z,35.72
2018-04-10T09:27:02.243Z,34.96
2018-04-10T09:29:34.767Z,34.78
2018-04-10T09:32:07.268Z,35.58
2018-04-10T09:34:39.791Z,35.43
2018-04-10T09:37:12.291Z,35.27
2018-04-10T09:39:44.810Z,34.92
2018-04-10T09:42:17.302Z,34.37
2018-04-10T09:44:49.838Z,34.59
2018-04-10T09:47:22.419Z,34.40
2018-04-10T09:49:55.008Z,34.17
2018-04-10T09:52:27.506Z,34.04
2018-04-10T09:55:00.098Z,34.62
2018-04-10T09:57:32.670Z,34.35
2018-04-10T10:00:05.182Z,33.87
2018-04-10T10:02:37.678Z,33.44
2018-04-10T10:05:10.201Z,33.92
2018-04-10T10:07:42.803Z,33.37
2018-04-10T10:10:15.319Z,33.04
2018-04-10T10:12:47.815Z,33.34
2018-04-10T10:15:20.416Z,33.58
2018-04-10T10:17:52.956Z,33.64
2018-04-10T10:20:25.466Z,34.13
2018-04-10T10:22:58.014Z,33.57
2018-04-10T10:25:30.571Z,32.29
2018-04-10T10:28:03.091Z,32.39
2018-04-10T10:30:35.612Z,32.91
2018-04-10T10:33:08.167Z,33.65
2018-04-10T10:35:40.740Z,32.67
2018-04-10T10:38:13.248Z,32.45
2018-04-10T10:40:45.760Z,32.71
2018-04-10T10:43:18.282Z,32.35
2018-04-10T10:45:50.873Z,31.50
2018-04-10T10:48:23.367Z,31.71
2018-04-10T10:50:55.947Z,31.61
2018-04-10T10:53:28.443Z,31.29
2018-04-10T10:56:00.954Z,31.36
2018-04-10T10:58:33.448Z,31.18
2018-04-10T11:01:05.973Z,30.98
2018-04-10T11:03:38.482Z,31.37
2018-04-10T11:06:10.990Z,31.23
2018-04-10T11:08:43.487Z,31.10
2018-04-10T11:11:16.010Z,31.28
2018-04-10T11:13:48.637Z,31.80
2018-04-10T11:16:21.146Z,32.54
2018-04-10T11:18:53.643Z,31.44
2018-04-10T11:21:26.157Z,30.60
2018-04-10T11:23:58.658Z,29.61
2018-04-10T11:26:31.234Z,29.33
2018-04-10T11:29:03.827Z,29.38
2018-04-10T11:31:36.355Z,29.91
2018-04-10T11:34:08.858Z,30.24
2018-04-10T11:36:41.490Z,29.59
2018-04-10T11:39:14.009Z,29.39
2018-04-10T11:41:46.533Z,30.66
2018-04-10T11:44:19.027Z,29.50
2018-04-10T11:46:51.539Z,30.40
2018-04-10T11:49:24.031Z,30.12
2018-04-10T11:51:56.550Z,29.22
2018-04-10T11:54:29.072Z,30.06
2018-04-10T11:57:01.659Z,28.99
2018-04-10T11:59:34.148Z,29.10
2018-04-10T12:02:06.679Z,29.59
2018-04-10T12:04:39.218Z,30.13
2018-04-10T12:07:11.739Z,29.70
2018-04-10T12:09:44.234Z,30.92
2018-04-10T12:12:16.772Z,29.93
2018-04-10T12:14:49.266Z,29.80
2018-04-10T12:17:21.844Z,29.45
2018-04-10T12:19:54.340Z,29.98
2018-04-10T12:22:26.854Z,29.49
2018-04-10T12:24:59.354Z,30.53
2018-04-10T12:27:31.872Z,31.04
2018-04-10T12:30:04.439Z,29.29
2018-04-10T12:32:36.929Z,28.13
2018-04-10T12:35:09.434Z,28.47
2018-04-10T12:37:42.023Z,28.03
2018-04-10T12:40:14.511Z,28.68
2018-04-10T12:42:47.087Z,27.81
2018-04-10T12:45:19.584Z,28.95
2018-04-10T12:47:52.154Z,27.37
2018-04-10T12:50:24.653Z,26.85
2018-04-10T12:52:57.234Z,28.52
2018-04-10T12:55:29.776Z,27.05
2018-04-10T12:58:02.301Z,25.99
2018-04-10T13:00:34.827Z,26.26
2018-04-10T13:03:07.327Z,26.87
2018-04-10T13:05:39.847Z,27.06
2018-04-10T13:08:12.341Z,26.84
2018-04-10T13:10:44.855Z,26.49
2018-04-10T13:13:17.399Z,27.36
2018-04-10T13:15:49.906Z,29.00
2018-04-10T13:18:22.407Z,28.87
2018-04-10T13:20:54.935Z,29.45
2018-04-10T13:23:27.547Z,29.20
2018-04-10T13:26:00.080Z,29.76
2018-04-10T13:28:32.576Z,29.97
2018-04-10T13:31:05.088Z,30.53
2018-04-10T13:33:37.579Z,31.99
2018-04-10T13:36:10.155Z,31.73
2018-04-10T13:38:42.739Z,32.07
2018-04-10T13:41:15.261Z,32.56
2018-04-10T13:43:47.807Z,32.54
2018-04-10T13:46:20.394Z,32.45
2018-04-10T13:48:52.888Z,32.16
2018-04-10T13:51:25.408Z,32.66
2018-04-10T13:53:57.965Z,32.57
2018-04-10T13:56:31.690Z,32.84
2018-04-10T13:59:04.191Z,33.36
2018-04-10T14:01:36.702Z,33.09
2018-04-10T14:04:09.203Z,33.18
2018-04-10T14:06:41.814Z,33.12
2018-04-10T14:09:14.305Z,33.98
2018-04-10T14:11:46.884Z,33.58
2018-04-10T14:14:19.359Z,33.62
2018-04-10T14:16:51.950Z,34.11
2018-04-10T14:19:24.531Z,33.41
2018-04-10T14:21:57.055Z,34.05
2018-04-10T14:24:29.553Z,33.67
2018-04-10T14:27:02.076Z,34.03
2018-04-10T14:29:34.672Z,33.20
2018-04-10T14:32:07.191Z,33.58
2018-04-10T14:34:39.687Z,33.58
2018-04-10T14:37:12.206Z,33.73
2018-04-10T14:39:44.703Z,33.61
2018-04-10T14:42:17.238Z,34.02
2018-04-10T14:44:49.792Z,33.74
2018-04-10T14:47:22.315Z,34.37
2018-04-10T14:49:54.821Z,34.74
2018-04-10T14:52:27.345Z,34.48
2018-04-10T14:54:59.837Z,33.80
2018-04-10T14:57:32.355Z,34.17
2018-04-10T15:00:04.862Z,34.25
2018-04-10T15:02:37.386Z,34.23
2018-04-10T15:05:09.885Z,34.19
2018-04-10T15:07:42.403Z,34.25
2018-04-10T15:10:14.901Z,33.22
2018-04-10T15:12:47.420Z,33.64
2018-04-10T15:15:19.923Z,34.07
2018-04-10T15:17:52.482Z,34.06
2018-04-10T15:20:24.979Z,35.03
2018-04-10T15:22:57.503Z,35.01
2018-04-10T15:25:30.046Z,34.99
2018-04-10T15:28:02.631Z,35.70
2018-04-10T15:30:35.127Z,35.94
2018-04-10T15:33:07.645Z,36.01
2018-04-10T15:35:40.155Z,36.92
2018-04-10T15:38:12.831Z,36.97
2018-04-10T15:40:45.351Z,37.45
2018-04-10T15:43:18.012Z,37.39
2018-04-10T15:45:50.742Z,36.89
2018-04-10T15:48:23.314Z,37.30
2018-04-10T15:50:55.810Z,37.18
2018-04-10T15:53:28.331Z,37.58
2018-04-10T15:56:00.825Z,37.20
2018-04-10T15:58:33.442Z,36.92
2018-04-10T16:01:06.048Z,37.43
2018-04-10T16:03:38.570Z,37.50
2018-04-10T16:06:11.073Z,37.24
2018-04-10T16:08:43.603Z,37.31
2018-04-10T16:11:16.093Z,37.44
2018-04-10T16:13:48.619Z,37.02
2018-04-10T16:16:21.126Z,37.12
2018-04-10T16:18:53.715Z,37.42
2018-04-10T16:21:26.223Z,37.36
2018-04-10T16:23:58.739Z,37.34
2018-04-10T16:26:31.231Z,37.91
2018-04-10T16:29:03.747Z,37.89
2018-04-10T16:31:36.279Z,37.54
2018-04-10T16:34:08.778Z,38.31
2018-04-10T16:36:41.297Z,38.36
2018-04-10T16:39:13.883Z,38.45
2018-04-10T16:41:46.472Z,38.55
2018-04-10T16:44:18.994Z,38.15
2018-04-10T16:46:51.501Z,38.55
2018-04-10T16:49:24.007Z,39.16
2018-04-10T16:51:56.524Z,38.92
2018-04-10T16:54:29.022Z,38.79
2018-04-10T16:57:01.563Z,38.95
2018-04-10T16:59:34.199Z,39.61
2018-04-10T17:02:06.770Z,39.77
2018-04-10T17:04:39.275Z,40.04
2018-04-10T17:07:11.796Z,40.16
2018-04-10T17:09:44.296Z,40.27
2018-04-10T17:12:16.821Z,40.55
2018-04-10T17:14:49.340Z,40.46
2018-04-10T17:17:21.860Z,40.57
2018-04-10T17:19:54.357Z,41.35
2018-04-10T17:22:26.883Z,41.39
2018-04-10T17:24:59.427Z,41.73
2018-04-10T17:27:32.018Z,42.22
2018-04-10T17:30:04.516Z,42.19
2018-04-10T17:32:37.028Z,42.54
2018-04-10T17:35:09.558Z,42.57
2018-04-10T17:37:42.091Z,43.07
2018-04-10T17:40:14.719Z,43.27
2018-04-10T17:42:47.248Z,43.65
2018-04-10T17:45:19.744Z,43.66
2018-04-10T17:47:52.265Z,43.89
2018-04-10T17:50:24.759Z,44.20
2018-04-10T17:52:57.342Z,44.23
2018-04-10T17:55:29.937Z,44.54
2018-04-10T17:58:02.458Z,44.65
2018-04-10T18:00:34.954Z,44.80
2018-04-10T18:03:07.470Z,45.14
2018-04-10T18:05:40.082Z,45.47
2018-04-10T18:08:12.602Z,46.22
2018-04-10T18:10:45.135Z,46.38
2018-04-10T18:13:17.642Z,46.48
2018-04-10T18:15:50.148Z,46.31
2018-04-10T18:18:22.660Z,46.49
2018-04-10T18:20:55.164Z,46.52
2018-04-10T18:23:27.775Z,46.41
2018-04-10T18:26:00.482Z,46.71
2018-04-10T18:28:33.040Z,46.72
2018-04-10T18:31:05.557Z,47.89
2018-04-10T18:33:38.071Z,48.19
2018-04-10T18:36:10.601Z,48.33
2018-04-10T18:38:43.110Z,48.69
2018-04-10T18:41:15.615Z,48.94
2018-04-10T18:43:48.136Z,49.32
2018-04-10T18:46:20.736Z,49.41
2018-04-10T18:48:53.259Z,49.27
2018-04-10T18:51:25.753Z,49.99
2018-04-10T18:53:58.258Z,50.32
2018-04-10T18:56:30.778Z,50.16
2018-04-10T18:59:03.291Z,51.06
2018-04-10T19:01:35.797Z,50.49
2018-04-10T19:04:08.312Z,50.19
2018-04-10T19:06:40.815Z,50.76
2018-04-10T19:09:13.335Z,51.00
2018-04-10T19:11:45.844Z,51.27
2018-04-10T19:14:18.383Z,52.05
2018-04-10T19:16:50.900Z,52.77
2018-04-10T19:19:23.473Z,52.64
2018-04-10T19:21:56.041Z,52.09
2018-04-10T19:24:28.631Z,52.42
2018-04-10T19:27:01.215Z,52.06
2018-04-10T19:29:33.802Z,52.31
2018-04-10T19:32:06.390Z,52.54
2018-04-10T19:34:38.899Z,52.71
2018-04-10T19:37:11.399Z,52.60
2018-04-10T19:39:43.911Z,52.96
2018-04-10T19:42:16.418Z,53.16
2018-04-10T19:44:49.840Z,54.29
2018-04-10T19:47:22.343Z,53.75
2018-04-10T19:49:54.873Z,54.58
2018-04-10T19:52:27.381Z,54.83
2018-04-10T19:54:59.992Z,55.47
2018-04-10T19:57:32.500Z,55.13
2018-04-10T20:00:05.023Z,54.37
2018-04-10T20:02:37.515Z,54.98
2018-04-10T20:05:10.118Z,54.67
2018-04-10T20:07:42.662Z,54.48
2018-04-10T20:10:15.204Z,55.14
2018-04-10T20:12:47.749Z,55.81
2018-04-10T20:15:20.252Z,55.87
2018-04-10T20:17:52.829Z,55.54
2018-04-10T20:20:25.332Z,55.84
2018-04-10T20:22:57.857Z,55.80
2018-04-10T20:25:30.374Z,56.30
2018-04-10T20:28:02.895Z,57.52
2018-04-10T20:30:35.404Z,56.69
2018-04-10T20:33:07.922Z,55.99
2018-04-10T20:35:40.423Z,55.85
2018-04-10T20:38:12.982Z,56.36
2018-04-10T20:40:45.475Z,56.35
2018-04-10T20:43:18.090Z,56.21
2018-04-10T20:45:50.588Z,57.43
2018-04-10T20:48:23.158Z,56.91
2018-04-10T20:50:55.667Z,57.56
2018-04-10T20:53:28.350Z,57.03
2018-04-10T20:56:00.923Z,57.14
2018-04-10T20:58:33.439Z,57.45
2018-04-10T21:01:05.991Z,58.26
2018-04-10T21:03:38.550Z,57.53
2018-04-10T21:06:11.081Z,57.00
2018-04-10T21:08:43.603Z,56.22
2018-04-10T21:11:16.105Z,55.93
2018-04-10T21:13:48.739Z,56.60
2018-04-10T21:16:21.311Z,56.69
2018-04-10T21:18:53.915Z,56.39
2018-04-10T21:21:26.417Z,56.58
2018-04-10T21:23:58.939Z,56.73
2018-04-10T21:26:31.458Z,56.92
2018-04-10T21:29:03.969Z,56.88
2018-04-10T21:31:36.463Z,57.11
2018-04-10T21:34:08.975Z,56.57
2018-04-10T21:36:41.480Z,56.32
2018-04-10T21:39:14.003Z,57.47
2018-04-10T21:41:46.559Z,58.53
2018-04-10T21:44:19.142Z,57.77
2018-04-10T21:46:51.641Z,57.39
2018-04-10T21:49:24.214Z,57.17
2018-04-10T21:51:56.711Z,57.47
2018-04-10T21:54:29.236Z,57.37
2018-04-10T21:57:01.736Z,57.36
2018-04-10T21:59:34.252Z,57.60
2018-04-10T22:02:06.834Z,57.12
2018-04-10T22:04:39.363Z,57.43
2018-04-10T22:07:11.906Z,57.42
2018-04-10T22:09:44.425Z,57.14
2018-04-10T22:12:16.985Z,58.20
2018-04-10T22:14:49.503Z,58.19
2018-04-10T22:17:22.012Z,57.94
2018-04-10T22:19:54.530Z,57.81
2018-04-10T22:22:27.027Z,57.62
2018-04-10T22:24:59.643Z,57.47
2018-04-10T22:27:32.147Z,57.41
2018-04-10T22:30:04.664Z,57.15
2018-04-10T22:32:37.178Z,57.45
2018-04-10T22:35:09.700Z,57.92
2018-04-10T22:37:42.203Z,58.62
2018-04-10T22:40:14.722Z,57.91
2018-04-10T22:42:47.215Z,58.00
2018-04-10T22:45:19.735Z,57.90
2018-04-10T22:47:52.345Z,58.01
2018-04-10T22:50:24.866Z,58.45
2018-04-10T22:52:57.355Z,58.35
2018-04-10T22:55:29.896Z,58.01
2018-04-10T22:58:02.475Z,57.86
2018-04-10T23:00:54.708Z,57.73
2018-04-10T23:03:27.257Z,58.25
2018-04-10T23:05:59.763Z,57.69
2018-04-10T23:08:32.299Z,57.30
2018-04-10T23:11:04.844Z,57.89
2018-04-10T23:13:37.371Z,58.31
2018-04-10T23:16:09.900Z,58.13
2018-04-10T23:18:42.395Z,57.64
2018-04-10T23:21:14.957Z,57.87
2018-04-10T23:23:47.547Z,58.12
2018-04-10T23:26:20.080Z,57.75
2018-04-10T23:28:52.703Z,58.13
2018-04-10T23:31:25.208Z,58.07
2018-04-10T23:33:57.756Z,57.72
2018-04-10T23:36:31.039Z,57.48
2018-04-10T23:39:03.560Z,57.32
2018-04-10T23:41:36.075Z,57.67
2018-04-10T23:44:08.603Z,57.47
2018-04-10T23:46:41.134Z,57.37
2018-04-10T23:49:13.654Z,57.45
2018-04-10T23:51:46.166Z,57.41
2018-04-10T23:54:18.780Z,57.04
2018-04-10T23:56:51.278Z,57.23
2018-04-10T23:59:23.815Z,57.21
